sensor_id;sensor_type;location;lat;lon;timestamp;temperature;humidity
75010;DHT22;63564;46.840;18.336;2022-12-10T00:00:55;7.82;99.99
75010;DHT22;63564;46.840;18.336;2022-12-10T00:04:03;7.79;99.99
75010;DHT22;63564;46.840;18.336;2022-12-10T00:07:04;7.73;99.99
75010;DHT22;63564;46.840;18.336;2022-12-10T00:10:05;7.79;99.99
75010;DHT22;63564;46.840;18.336;2022-12-10T00:13:05;7.83;99.99
75010;DHT22;63564;46.840;18.336;2022-12-10T00:16:08;7.80;99.99
75010;DHT22;63564;46.840;18.336;2022-12-10T00:19:09;7.76;99.99
75010;DHT22;63564;46.840;18.336;2022-12-10T00:22:09;7.75;99.99
75010;DHT22;63564;46.840;18.336;2022-12-10T00:25:10;7.65;99.99
75010;DHT22;63564;46.840;18.336;2022-12-10T00:28:10;7.75;99.99
75010;DHT22;63564;46.840;18.336;2022-12-10T00:31:14;7.76;99.99
75010;DHT22;63564;46.840;18.336;2022-12-10T00:34:15;7.76;99.99
75010;DHT22;63564;46.840;18.336;2022-12-10T00:37:15;7.70;99.99
75010;DHT22;63564;46.840;18.336;2022-12-10T00:40:16;7.66;99.99
75010;DHT22;63564;46.840;18.336;2022-12-10T00:43:16;7.63;99.99
75010;DHT22;63564;46.840;18.336;2022-12-10T00:46:17;7.59;99.99
75010;DHT22;63564;46.840;18.336;2022-12-10T00:49:18;7.62;99.99
75010;DHT22;63564;46.840;18.336;2022-12-10T00:52:19;7.63;99.99
75010;DHT22;63564;46.840;18.336;2022-12-10T00:55:19;7.56;99.99
75010;DHT22;63564;46.840;18.336;2022-12-10T00:58:20;7.62;99.99
75010;DHT22;63564;46.840;18.336;2022-12-10T01:01:27;7.70;99.99
75010;DHT22;63564;46.840;18.336;2022-12-10T01:04:28;7.70;99.99
75010;DHT22;63564;46.840;18.336;2022-12-10T01:07:28;7.70;99.99
75010;DHT22;63564;46.840;18.336;2022-12-10T01:10:28;7.70;99.99
75010;DHT22;63564;46.840;18.336;2022-12-10T01:13:29;7.66;99.99
75010;DHT22;63564;46.840;18.336;2022-12-10T01:16:29;7.69;99.99
75010;DHT22;63564;46.840;18.336;2022-12-10T01:19:31;7.63;99.99
75010;DHT22;63564;46.840;18.336;2022-12-10T01:22:31;7.61;99.70
75010;DHT22;63564;46.840;18.336;2022-12-10T01:25:32;7.51;99.36
75010;DHT22;63564;46.840;18.336;2022-12-10T01:28:35;7.54;99.69
75010;DHT22;63564;46.840;18.336;2022-12-10T01:31:37;7.49;99.51
75010;DHT22;63564;46.840;18.336;2022-12-10T01:34:37;7.48;99.49
75010;DHT22;63564;46.840;18.336;2022-12-10T01:37:38;7.38;99.47
75010;DHT22;63564;46.840;18.336;2022-12-10T01:40:38;7.38;99.46
75010;DHT22;63564;46.840;18.336;2022-12-10T01:46:56;7.34;99.57
75010;DHT22;63564;46.840;18.336;2022-12-10T01:49:57;7.34;99.03
75010;DHT22;63564;46.840;18.336;2022-12-10T01:52:58;7.28;98.88
75010;DHT22;63564;46.840;18.336;2022-12-10T01:55:58;7.20;98.51
75010;DHT22;63564;46.840;18.336;2022-12-10T01:58:59;7.20;98.46
75010;DHT22;63564;46.840;18.336;2022-12-10T02:02:08;7.15;98.18
75010;DHT22;63564;46.840;18.336;2022-12-10T02:05:25;7.11;98.57
75010;DHT22;63564;46.840;18.336;2022-12-10T02:08:39;7.08;98.76
75010;DHT22;63564;46.840;18.336;2022-12-10T02:17:55;6.91;97.89
75010;DHT22;63564;46.840;18.336;2022-12-10T02:21:00;6.99;98.10
75010;DHT22;63564;46.840;18.336;2022-12-10T02:24:06;6.89;97.75
75010;DHT22;63564;46.840;18.336;2022-12-10T02:27:26;6.89;98.32
75010;DHT22;63564;46.840;18.336;2022-12-10T02:30:31;6.89;97.85
75010;DHT22;63564;46.840;18.336;2022-12-10T02:33:35;6.76;97.35
75010;DHT22;63564;46.840;18.336;2022-12-10T02:36:39;6.82;98.03
75010;DHT22;63564;46.840;18.336;2022-12-10T02:39:44;6.79;97.98
75010;DHT22;63564;46.840;18.336;2022-12-10T02:42:48;6.77;97.59
75010;DHT22;63564;46.840;18.336;2022-12-10T02:45:50;6.76;97.59
75010;DHT22;63564;46.840;18.336;2022-12-10T02:48:52;6.66;97.81
75010;DHT22;63564;46.840;18.336;2022-12-10T02:51:53;6.71;98.18
75010;DHT22;63564;46.840;18.336;2022-12-10T02:54:53;6.73;97.90
75010;DHT22;63564;46.840;18.336;2022-12-10T02:58:15;6.63;98.55
75010;DHT22;63564;46.840;18.336;2022-12-10T03:01:52;6.52;98.25
75010;DHT22;63564;46.840;18.336;2022-12-10T03:08:57;6.75;97.69
75010;DHT22;63564;46.840;18.336;2022-12-10T03:12:02;6.80;98.17
75010;DHT22;63564;46.840;18.336;2022-12-10T03:15:09;6.80;98.11
75010;DHT22;63564;46.840;18.336;2022-12-10T03:18:10;6.86;97.88
75010;DHT22;63564;46.840;18.336;2022-12-10T03:21:13;6.68;98.34
75010;DHT22;63564;46.840;18.336;2022-12-10T03:24:16;6.73;97.95
75010;DHT22;63564;46.840;18.336;2022-12-10T03:27:19;6.61;98.72
75010;DHT22;63564;46.840;18.336;2022-12-10T03:30:22;6.66;98.82
75010;DHT22;63564;46.840;18.336;2022-12-10T03:33:22;6.63;98.27
75010;DHT22;63564;46.840;18.336;2022-12-10T03:36:24;6.65;98.17
75010;DHT22;63564;46.840;18.336;2022-12-10T03:39:25;6.62;98.24
75010;DHT22;63564;46.840;18.336;2022-12-10T03:42:26;6.71;98.38
75010;DHT22;63564;46.840;18.336;2022-12-10T03:45:27;6.73;96.96
75010;DHT22;63564;46.840;18.336;2022-12-10T03:48:27;6.53;96.68
75010;DHT22;63564;46.840;18.336;2022-12-10T03:51:28;6.61;97.31
75010;DHT22;63564;46.840;18.336;2022-12-10T03:54:28;6.69;96.21
75010;DHT22;63564;46.840;18.336;2022-12-10T03:57:29;6.59;95.40
75010;DHT22;63564;46.840;18.336;2022-12-10T04:00:29;6.57;95.81
75010;DHT22;63564;46.840;18.336;2022-12-10T04:03:29;6.45;95.34
75010;DHT22;63564;46.840;18.336;2022-12-10T04:06:30;6.46;95.75
75010;DHT22;63564;46.840;18.336;2022-12-10T04:09:31;6.46;95.92
75010;DHT22;63564;46.840;18.336;2022-12-10T04:12:31;6.42;95.83
75010;DHT22;63564;46.840;18.336;2022-12-10T04:15:32;6.38;96.17
75010;DHT22;63564;46.840;18.336;2022-12-10T04:19:13;6.29;96.39
75010;DHT22;63564;46.840;18.336;2022-12-10T04:22:13;6.32;96.40
75010;DHT22;63564;46.840;18.336;2022-12-10T04:25:32;6.32;96.62
75010;DHT22;63564;46.840;18.336;2022-12-10T04:28:51;6.32;96.67
75010;DHT22;63564;46.840;18.336;2022-12-10T04:31:52;6.28;96.70
75010;DHT22;63564;46.840;18.336;2022-12-10T04:34:52;6.28;96.47
75010;DHT22;63564;46.840;18.336;2022-12-10T04:37:53;6.25;96.22
75010;DHT22;63564;46.840;18.336;2022-12-10T04:40:53;6.08;96.90
75010;DHT22;63564;46.840;18.336;2022-12-10T04:43:53;6.08;97.26
75010;DHT22;63564;46.840;18.336;2022-12-10T04:46:54;6.06;96.90
75010;DHT22;63564;46.840;18.336;2022-12-10T04:49:54;6.07;96.99
75010;DHT22;63564;46.840;18.336;2022-12-10T04:52:55;6.04;97.07
75010;DHT22;63564;46.840;18.336;2022-12-10T04:55:55;6.07;95.97
75010;DHT22;63564;46.840;18.336;2022-12-10T04:58:56;6.13;95.76
75010;DHT22;63564;46.840;18.336;2022-12-10T05:01:57;6.04;96.19
75010;DHT22;63564;46.840;18.336;2022-12-10T05:04:57;6.04;95.93
75010;DHT22;63564;46.840;18.336;2022-12-10T05:07:58;6.11;96.38
75010;DHT22;63564;46.840;18.336;2022-12-10T05:11:06;6.04;95.72
75010;DHT22;63564;46.840;18.336;2022-12-10T05:14:10;6.00;96.20
75010;DHT22;63564;46.840;18.336;2022-12-10T05:17:10;6.01;96.00
75010;DHT22;63564;46.840;18.336;2022-12-10T05:20:11;5.96;95.41
75010;DHT22;63564;46.840;18.336;2022-12-10T05:23:11;5.87;95.96
75010;DHT22;63564;46.840;18.336;2022-12-10T05:26:30;5.79;96.39
75010;DHT22;63564;46.840;18.336;2022-12-10T05:29:32;5.60;97.14
75010;DHT22;63564;46.840;18.336;2022-12-10T05:32:33;5.79;96.35
75010;DHT22;63564;46.840;18.336;2022-12-10T05:35:33;5.80;96.64
75010;DHT22;63564;46.840;18.336;2022-12-10T05:38:34;5.86;95.70
75010;DHT22;63564;46.840;18.336;2022-12-10T05:41:37;5.86;95.66
75010;DHT22;63564;46.840;18.336;2022-12-10T05:44:37;5.81;96.78
75010;DHT22;63564;46.840;18.336;2022-12-10T05:47:38;5.80;96.78
75010;DHT22;63564;46.840;18.336;2022-12-10T05:50:39;5.77;96.52
75010;DHT22;63564;46.840;18.336;2022-12-10T05:53:39;5.81;95.33
75010;DHT22;63564;46.840;18.336;2022-12-10T05:56:40;5.79;95.87
75010;DHT22;63564;46.840;18.336;2022-12-10T05:59:41;5.81;96.29
75010;DHT22;63564;46.840;18.336;2022-12-10T06:02:42;5.74;96.56
75010;DHT22;63564;46.840;18.336;2022-12-10T06:05:42;5.63;96.77
75010;DHT22;63564;46.840;18.336;2022-12-10T06:08:42;5.71;97.10
75010;DHT22;63564;46.840;18.336;2022-12-10T06:11:43;5.67;97.10
75010;DHT22;63564;46.840;18.336;2022-12-10T06:14:43;5.49;97.74
75010;DHT22;63564;46.840;18.336;2022-12-10T06:17:44;5.55;97.38
75010;DHT22;63564;46.840;18.336;2022-12-10T06:20:44;5.66;97.15
75010;DHT22;63564;46.840;18.336;2022-12-10T06:23:46;5.69;97.44
75010;DHT22;63564;46.840;18.336;2022-12-10T06:26:46;5.65;96.06
75010;DHT22;63564;46.840;18.336;2022-12-10T06:29:47;5.63;97.04
75010;DHT22;63564;46.840;18.336;2022-12-10T06:32:47;5.45;97.18
75010;DHT22;63564;46.840;18.336;2022-12-10T06:35:48;5.43;97.64
75010;DHT22;63564;46.840;18.336;2022-12-10T06:38:48;5.48;97.85
75010;DHT22;63564;46.840;18.336;2022-12-10T06:41:48;5.45;97.58
75010;DHT22;63564;46.840;18.336;2022-12-10T06:44:49;5.53;97.67
75010;DHT22;63564;46.840;18.336;2022-12-10T06:47:49;5.38;96.26
75010;DHT22;63564;46.840;18.336;2022-12-10T06:50:50;5.52;95.27
75010;DHT22;63564;46.840;18.336;2022-12-10T06:53:50;5.40;95.00
75010;DHT22;63564;46.840;18.336;2022-12-10T06:56:50;5.32;95.08
75010;DHT22;63564;46.840;18.336;2022-12-10T06:59:51;5.15;95.23
75010;DHT22;63564;46.840;18.336;2022-12-10T07:02:51;5.11;95.32
75010;DHT22;63564;46.840;18.336;2022-12-10T07:05:51;5.04;95.09
75010;DHT22;63564;46.840;18.336;2022-12-10T07:08:52;5.15;95.53
75010;DHT22;63564;46.840;18.336;2022-12-10T07:11:52;5.14;95.70
75010;DHT22;63564;46.840;18.336;2022-12-10T07:14:53;5.28;94.91
75010;DHT22;63564;46.840;18.336;2022-12-10T07:17:53;5.32;94.40
75010;DHT22;63564;46.840;18.336;2022-12-10T07:20:54;5.38;94.19
75010;DHT22;63564;46.840;18.336;2022-12-10T07:23:56;5.38;93.98
75010;DHT22;63564;46.840;18.336;2022-12-10T07:26:58;5.35;93.99
75010;DHT22;63564;46.840;18.336;2022-12-10T07:29:58;5.38;94.52
75010;DHT22;63564;46.840;18.336;2022-12-10T07:32:59;5.32;93.84
75010;DHT22;63564;46.840;18.336;2022-12-10T07:36:03;5.36;93.18
75010;DHT22;63564;46.840;18.336;2022-12-10T07:39:08;5.27;93.68
75010;DHT22;63564;46.840;18.336;2022-12-10T07:42:08;5.17;93.95
75010;DHT22;63564;46.840;18.336;2022-12-10T07:45:09;5.14;94.83
75010;DHT22;63564;46.840;18.336;2022-12-10T07:48:10;5.27;93.96
75010;DHT22;63564;46.840;18.336;2022-12-10T07:51:10;5.25;94.38
75010;DHT22;63564;46.840;18.336;2022-12-10T07:54:11;5.27;94.54
75010;DHT22;63564;46.840;18.336;2022-12-10T07:57:12;5.07;94.93
75010;DHT22;63564;46.840;18.336;2022-12-10T08:00:14;4.94;95.35
75010;DHT22;63564;46.840;18.336;2022-12-10T08:03:14;4.88;95.48
75010;DHT22;63564;46.840;18.336;2022-12-10T08:06:16;5.01;93.48
75010;DHT22;63564;46.840;18.336;2022-12-10T08:09:17;4.95;93.21
75010;DHT22;63564;46.840;18.336;2022-12-10T08:12:17;4.93;93.62
75010;DHT22;63564;46.840;18.336;2022-12-10T08:15:18;5.05;92.88
75010;DHT22;63564;46.840;18.336;2022-12-10T08:18:18;5.02;93.84
75010;DHT22;63564;46.840;18.336;2022-12-10T08:21:21;4.77;93.24
75010;DHT22;63564;46.840;18.336;2022-12-10T08:24:22;4.88;93.33
75010;DHT22;63564;46.840;18.336;2022-12-10T08:27:23;4.67;92.21
75010;DHT22;63564;46.840;18.336;2022-12-10T08:30:23;4.67;93.34
75010;DHT22;63564;46.840;18.336;2022-12-10T08:33:24;4.67;92.82
75010;DHT22;63564;46.840;18.336;2022-12-10T08:36:24;4.63;93.29
75010;DHT22;63564;46.840;18.336;2022-12-10T08:39:24;4.50;93.38
75010;DHT22;63564;46.840;18.336;2022-12-10T08:42:25;4.69;92.57
75010;DHT22;63564;46.840;18.336;2022-12-10T08:45:25;4.66;91.99
75010;DHT22;63564;46.840;18.336;2022-12-10T08:48:26;4.79;92.09
75010;DHT22;63564;46.840;18.336;2022-12-10T08:51:27;4.52;92.96
75010;DHT22;63564;46.840;18.336;2022-12-10T08:54:28;4.64;93.71
75010;DHT22;63564;46.840;18.336;2022-12-10T08:57:28;4.70;92.78
75010;DHT22;63564;46.840;18.336;2022-12-10T09:00:28;4.74;91.79
75010;DHT22;63564;46.840;18.336;2022-12-10T09:03:29;4.55;93.16
75010;DHT22;63564;46.840;18.336;2022-12-10T09:06:29;4.57;93.62
75010;DHT22;63564;46.840;18.336;2022-12-10T09:09:31;4.38;92.57
75010;DHT22;63564;46.840;18.336;2022-12-10T09:12:34;4.42;92.43
75010;DHT22;63564;46.840;18.336;2022-12-10T09:15:35;4.45;92.16
75010;DHT22;63564;46.840;18.336;2022-12-10T09:18:36;4.45;93.60
75010;DHT22;63564;46.840;18.336;2022-12-10T09:21:36;4.53;92.41
75010;DHT22;63564;46.840;18.336;2022-12-10T09:24:37;4.60;93.03
75010;DHT22;63564;46.840;18.336;2022-12-10T09:27:37;4.60;93.26
75010;DHT22;63564;46.840;18.336;2022-12-10T09:30:37;4.73;91.83
75010;DHT22;63564;46.840;18.336;2022-12-10T09:33:39;4.42;92.51
75010;DHT22;63564;46.840;18.336;2022-12-10T09:36:39;4.56;92.92
75010;DHT22;63564;46.840;18.336;2022-12-10T09:39:40;4.41;92.95
75010;DHT22;63564;46.840;18.336;2022-12-10T09:42:51;4.38;92.85
75010;DHT22;63564;46.840;18.336;2022-12-10T09:46:10;4.31;93.92
75010;DHT22;63564;46.840;18.336;2022-12-10T09:52:42;4.39;94.00
75010;DHT22;63564;46.840;18.336;2022-12-10T09:55:45;4.49;92.93
75010;DHT22;63564;46.840;18.336;2022-12-10T09:58:46;4.34;93.17
75010;DHT22;63564;46.840;18.336;2022-12-10T10:01:56;4.31;93.13
75010;DHT22;63564;46.840;18.336;2022-12-10T10:05:34;4.31;93.08
75010;DHT22;63564;46.840;18.336;2022-12-10T10:08:36;4.36;93.28
75010;DHT22;63564;46.840;18.336;2022-12-10T10:11:38;4.42;93.32
75010;DHT22;63564;46.840;18.336;2022-12-10T10:14:39;4.35;93.42
75010;DHT22;63564;46.840;18.336;2022-12-10T10:17:39;4.46;94.20
75010;DHT22;63564;46.840;18.336;2022-12-10T10:20:46;4.50;93.07
75010;DHT22;63564;46.840;18.336;2022-12-10T10:23:46;4.48;93.46
75010;DHT22;63564;46.840;18.336;2022-12-10T10:26:47;4.29;93.24
75010;DHT22;63564;46.840;18.336;2022-12-10T10:29:54;4.42;93.83
75010;DHT22;63564;46.840;18.336;2022-12-10T10:32:56;4.45;93.15
75010;DHT22;63564;46.840;18.336;2022-12-10T10:35:57;4.49;93.96
75010;DHT22;63564;46.840;18.336;2022-12-10T10:39:29;4.41;93.16
75010;DHT22;63564;46.840;18.336;2022-12-10T10:42:39;4.28;93.94
75010;DHT22;63564;46.840;18.336;2022-12-10T10:45:41;4.31;94.56
75010;DHT22;63564;46.840;18.336;2022-12-10T10:48:43;4.34;94.31
75010;DHT22;63564;46.840;18.336;2022-12-10T10:51:44;4.24;94.31
75010;DHT22;63564;46.840;18.336;2022-12-10T10:54:48;4.21;94.57
75010;DHT22;63564;46.840;18.336;2022-12-10T10:57:51;4.04;95.12
75010;DHT22;63564;46.840;18.336;2022-12-10T11:01:04;4.05;95.59
75010;DHT22;63564;46.840;18.336;2022-12-10T11:04:05;3.98;95.53
75010;DHT22;63564;46.840;18.336;2022-12-10T11:07:18;3.97;95.96
75010;DHT22;63564;46.840;18.336;2022-12-10T11:10:22;3.95;95.95
75010;DHT22;63564;46.840;18.336;2022-12-10T11:13:25;4.07;95.22
75010;DHT22;63564;46.840;18.336;2022-12-10T11:16:26;4.09;96.01
75010;DHT22;63564;46.840;18.336;2022-12-10T11:19:26;4.08;96.30
75010;DHT22;63564;46.840;18.336;2022-12-10T11:22:28;4.05;95.91
75010;DHT22;63564;46.840;18.336;2022-12-10T11:25:47;3.94;95.86
75010;DHT22;63564;46.840;18.336;2022-12-10T11:29:05;4.08;95.87
75010;DHT22;63564;46.840;18.336;2022-12-10T11:35:53;3.98;96.55
75010;DHT22;63564;46.840;18.336;2022-12-10T11:39:17;3.93;96.48
75010;DHT22;63564;46.840;18.336;2022-12-10T12:06:20;3.86;97.01
75010;DHT22;63564;46.840;18.336;2022-12-10T12:13:00;3.78;97.73
75010;DHT22;63564;46.840;18.336;2022-12-10T12:16:08;3.86;97.76
75010;DHT22;63564;46.840;18.336;2022-12-10T12:19:40;3.86;97.16
75010;DHT22;63564;46.840;18.336;2022-12-10T12:22:50;3.90;97.05
75010;DHT22;63564;46.840;18.336;2022-12-10T12:25:56;3.86;95.80
75010;DHT22;63564;46.840;18.336;2022-12-10T12:32:50;3.91;95.76
75010;DHT22;63564;46.840;18.336;2022-12-10T12:35:57;3.83;96.39
75010;DHT22;63564;46.840;18.336;2022-12-10T12:39:23;3.90;96.11
75010;DHT22;63564;46.840;18.336;2022-12-10T12:42:38;3.86;95.93
75010;DHT22;63564;46.840;18.336;2022-12-10T12:45:47;3.99;95.85
75010;DHT22;63564;46.840;18.336;2022-12-10T12:48:51;3.93;95.61
75010;DHT22;63564;46.840;18.336;2022-12-10T12:52:14;3.81;96.15
75010;DHT22;63564;46.840;18.336;2022-12-10T12:55:24;3.84;96.69
75010;DHT22;63564;46.840;18.336;2022-12-10T12:58:40;3.71;96.37
75010;DHT22;63564;46.840;18.336;2022-12-10T13:01:49;3.76;97.05
75010;DHT22;63564;46.840;18.336;2022-12-10T13:04:51;3.76;96.81
75010;DHT22;63564;46.840;18.336;2022-12-10T13:11:27;3.56;97.16
75010;DHT22;63564;46.840;18.336;2022-12-10T13:14:32;3.66;97.62
75010;DHT22;63564;46.840;18.336;2022-12-10T13:17:35;3.74;97.93
75010;DHT22;63564;46.840;18.336;2022-12-10T13:21:27;3.64;97.21
75010;DHT22;63564;46.840;18.336;2022-12-10T13:24:59;3.63;96.75
75010;DHT22;63564;46.840;18.336;2022-12-10T13:31:33;3.53;97.60
75010;DHT22;63564;46.840;18.336;2022-12-10T13:34:36;3.64;97.37
75010;DHT22;63564;46.840;18.336;2022-12-10T13:37:55;3.67;97.24
75010;DHT22;63564;46.840;18.336;2022-12-10T13:41:05;3.62;97.78
75010;DHT22;63564;46.840;18.336;2022-12-10T13:47:47;3.74;97.09
75010;DHT22;63564;46.840;18.336;2022-12-10T13:50:55;3.84;96.60
75010;DHT22;63564;46.840;18.336;2022-12-10T14:07:27;3.87;96.80
75010;DHT22;63564;46.840;18.336;2022-12-10T14:10:32;3.84;97.30
75010;DHT22;63564;46.840;18.336;2022-12-10T14:13:39;3.76;96.84
75010;DHT22;63564;46.840;18.336;2022-12-10T14:16:41;3.76;97.52
75010;DHT22;63564;46.840;18.336;2022-12-10T14:19:43;3.73;97.40
75010;DHT22;63564;46.840;18.336;2022-12-10T14:22:49;3.77;96.86
75010;DHT22;63564;46.840;18.336;2022-12-10T14:25:51;3.70;97.26
75010;DHT22;63564;46.840;18.336;2022-12-10T14:29:01;3.78;96.94
75010;DHT22;63564;46.840;18.336;2022-12-10T14:32:02;3.69;97.27
75010;DHT22;63564;46.840;18.336;2022-12-10T14:35:10;3.66;97.90
75010;DHT22;63564;46.840;18.336;2022-12-10T14:38:21;3.71;97.62
75010;DHT22;63564;46.840;18.336;2022-12-10T14:41:24;3.77;97.28
75010;DHT22;63564;46.840;18.336;2022-12-10T14:44:26;3.80;97.02
75010;DHT22;63564;46.840;18.336;2022-12-10T14:47:32;3.76;97.11
75010;DHT22;63564;46.840;18.336;2022-12-10T14:50:37;3.71;97.58
75010;DHT22;63564;46.840;18.336;2022-12-10T14:53:38;3.67;97.46
75010;DHT22;63564;46.840;18.336;2022-12-10T14:56:39;3.69;97.52
75010;DHT22;63564;46.840;18.336;2022-12-10T14:59:46;3.66;97.19
75010;DHT22;63564;46.840;18.336;2022-12-10T15:02:56;3.63;97.45
75010;DHT22;63564;46.840;18.336;2022-12-10T15:06:01;3.63;97.74
75010;DHT22;63564;46.840;18.336;2022-12-10T15:09:03;3.62;97.39
75010;DHT22;63564;46.840;18.336;2022-12-10T15:12:04;3.58;97.72
75010;DHT22;63564;46.840;18.336;2022-12-10T15:15:11;3.56;98.07
75010;DHT22;63564;46.840;18.336;2022-12-10T15:18:18;3.58;97.35
75010;DHT22;63564;46.840;18.336;2022-12-10T15:21:22;3.58;97.85
75010;DHT22;63564;46.840;18.336;2022-12-10T15:24:36;3.66;97.16
75010;DHT22;63564;46.840;18.336;2022-12-10T15:27:37;3.55;97.25
75010;DHT22;63564;46.840;18.336;2022-12-10T15:30:39;3.60;97.41
75010;DHT22;63564;46.840;18.336;2022-12-10T15:33:59;3.55;97.43
75010;DHT22;63564;46.840;18.336;2022-12-10T15:37:02;3.62;96.93
75010;DHT22;63564;46.840;18.336;2022-12-10T15:40:06;3.55;97.16
75010;DHT22;63564;46.840;18.336;2022-12-10T15:43:28;3.58;97.20
75010;DHT22;63564;46.840;18.336;2022-12-10T15:46:32;3.55;97.31
75010;DHT22;63564;46.840;18.336;2022-12-10T15:49:32;3.53;97.15
75010;DHT22;63564;46.840;18.336;2022-12-10T15:52:33;3.56;97.09
75010;DHT22;63564;46.840;18.336;2022-12-10T15:55:34;3.56;97.64
75010;DHT22;63564;46.840;18.336;2022-12-10T15:58:35;3.55;97.30
75010;DHT22;63564;46.840;18.336;2022-12-10T16:01:36;3.52;97.22
75010;DHT22;63564;46.840;18.336;2022-12-10T16:04:37;3.53;97.43
75010;DHT22;63564;46.840;18.336;2022-12-10T16:07:37;3.49;97.46
75010;DHT22;63564;46.840;18.336;2022-12-10T16:10:38;3.46;97.60
75010;DHT22;63564;46.840;18.336;2022-12-10T16:13:44;3.52;97.23
75010;DHT22;63564;46.840;18.336;2022-12-10T16:16:47;3.49;97.72
75010;DHT22;63564;46.840;18.336;2022-12-10T16:19:47;3.48;97.71
75010;DHT22;63564;46.840;18.336;2022-12-10T16:22:49;3.49;97.75
75010;DHT22;63564;46.840;18.336;2022-12-10T16:25:50;3.53;97.38
75010;DHT22;63564;46.840;18.336;2022-12-10T16:28:51;3.53;97.60
75010;DHT22;63564;46.840;18.336;2022-12-10T16:31:55;3.40;98.14
75010;DHT22;63564;46.840;18.336;2022-12-10T16:34:55;3.49;97.31
75010;DHT22;63564;46.840;18.336;2022-12-10T16:37:56;3.46;97.59
75010;DHT22;63564;46.840;18.336;2022-12-10T16:40:59;3.43;97.72
75010;DHT22;63564;46.840;18.336;2022-12-10T16:44:00;3.42;97.78
75010;DHT22;63564;46.840;18.336;2022-12-10T16:47:01;3.36;97.68
75010;DHT22;63564;46.840;18.336;2022-12-10T16:50:09;3.38;97.92
75010;DHT22;63564;46.840;18.336;2022-12-10T16:53:23;3.39;97.53
75010;DHT22;63564;46.840;18.336;2022-12-10T16:56:25;3.38;97.72
75010;DHT22;63564;46.840;18.336;2022-12-10T16:59:26;3.43;97.52
75010;DHT22;63564;46.840;18.336;2022-12-10T17:02:26;3.40;97.58
75010;DHT22;63564;46.840;18.336;2022-12-10T17:08:28;3.38;97.63
75010;DHT22;63564;46.840;18.336;2022-12-10T17:11:40;3.39;97.18
75010;DHT22;63564;46.840;18.336;2022-12-10T17:14:49;3.33;97.80
75010;DHT22;63564;46.840;18.336;2022-12-10T17:17:49;3.36;97.33
75010;DHT22;63564;46.840;18.336;2022-12-10T17:20:50;3.35;97.51
75010;DHT22;63564;46.840;18.336;2022-12-10T17:23:51;3.29;97.31
75010;DHT22;63564;46.840;18.336;2022-12-10T17:26:52;3.26;97.95
75010;DHT22;63564;46.840;18.336;2022-12-10T17:29:53;3.31;97.30
75010;DHT22;63564;46.840;18.336;2022-12-10T17:32:54;3.31;97.32
75010;DHT22;63564;46.840;18.336;2022-12-10T17:35:54;3.29;97.62
75010;DHT22;63564;46.840;18.336;2022-12-10T17:38:55;3.28;97.75
75010;DHT22;63564;46.840;18.336;2022-12-10T17:41:56;3.31;97.53
75010;DHT22;63564;46.840;18.336;2022-12-10T17:44:56;3.29;97.63
75010;DHT22;63564;46.840;18.336;2022-12-10T17:47:57;3.31;97.81
75010;DHT22;63564;46.840;18.336;2022-12-10T17:50:59;3.29;97.16
75010;DHT22;63564;46.840;18.336;2022-12-10T17:53:59;3.31;98.13
75010;DHT22;63564;46.840;18.336;2022-12-10T17:57:00;3.28;98.44
75010;DHT22;63564;46.840;18.336;2022-12-10T18:00:00;3.26;97.74
75010;DHT22;63564;46.840;18.336;2022-12-10T18:03:03;3.29;98.15
75010;DHT22;63564;46.840;18.336;2022-12-10T18:06:08;3.25;98.49
75010;DHT22;63564;46.840;18.336;2022-12-10T18:09:11;3.31;98.37
75010;DHT22;63564;46.840;18.336;2022-12-10T18:12:12;3.31;98.26
75010;DHT22;63564;46.840;18.336;2022-12-10T18:15:13;3.29;98.17
75010;DHT22;63564;46.840;18.336;2022-12-10T18:18:14;3.29;98.59
75010;DHT22;63564;46.840;18.336;2022-12-10T18:21:16;3.29;98.42
75010;DHT22;63564;46.840;18.336;2022-12-10T18:24:20;3.31;98.25
75010;DHT22;63564;46.840;18.336;2022-12-10T18:27:20;3.35;98.03
75010;DHT22;63564;46.840;18.336;2022-12-10T18:30:23;3.33;98.41
75010;DHT22;63564;46.840;18.336;2022-12-10T18:33:23;3.29;98.34
75010;DHT22;63564;46.840;18.336;2022-12-10T18:36:28;3.26;98.42
75010;DHT22;63564;46.840;18.336;2022-12-10T18:39:29;3.29;98.18
75010;DHT22;63564;46.840;18.336;2022-12-10T18:42:34;3.28;97.88
75010;DHT22;63564;46.840;18.336;2022-12-10T18:45:34;3.23;98.06
75010;DHT22;63564;46.840;18.336;2022-12-10T18:48:35;3.22;98.70
75010;DHT22;63564;46.840;18.336;2022-12-10T18:51:36;3.25;98.04
75010;DHT22;63564;46.840;18.336;2022-12-10T18:54:37;3.21;97.99
75010;DHT22;63564;46.840;18.336;2022-12-10T18:57:38;3.22;98.12
75010;DHT22;63564;46.840;18.336;2022-12-10T19:00:38;3.22;98.57
75010;DHT22;63564;46.840;18.336;2022-12-10T19:03:40;3.18;98.16
75010;DHT22;63564;46.840;18.336;2022-12-10T19:06:41;3.18;98.30
75010;DHT22;63564;46.840;18.336;2022-12-10T19:09:45;3.21;98.64
75010;DHT22;63564;46.840;18.336;2022-12-10T19:12:48;3.19;98.50
75010;DHT22;63564;46.840;18.336;2022-12-10T19:15:49;3.18;98.54
75010;DHT22;63564;46.840;18.336;2022-12-10T19:18:53;3.15;98.57
75010;DHT22;63564;46.840;18.336;2022-12-10T19:21:55;3.15;98.28
75010;DHT22;63564;46.840;18.336;2022-12-10T19:24:56;3.11;98.52
75010;DHT22;63564;46.840;18.336;2022-12-10T19:27:57;3.15;98.64
75010;DHT22;63564;46.840;18.336;2022-12-10T19:30:58;3.16;98.49
75010;DHT22;63564;46.840;18.336;2022-12-10T19:33:59;3.15;98.77
75010;DHT22;63564;46.840;18.336;2022-12-10T19:37:00;3.15;98.73
75010;DHT22;63564;46.840;18.336;2022-12-10T19:40:01;3.15;98.75
75010;DHT22;63564;46.840;18.336;2022-12-10T19:43:02;3.18;98.90
75010;DHT22;63564;46.840;18.336;2022-12-10T19:46:22;3.15;98.58
75010;DHT22;63564;46.840;18.336;2022-12-10T19:49:23;3.15;98.49
75010;DHT22;63564;46.840;18.336;2022-12-10T19:52:25;3.18;99.03
75010;DHT22;63564;46.840;18.336;2022-12-10T19:55:27;3.18;99.11
75010;DHT22;63564;46.840;18.336;2022-12-10T19:58:28;3.18;98.76
75010;DHT22;63564;46.840;18.336;2022-12-10T20:01:29;3.15;98.95
75010;DHT22;63564;46.840;18.336;2022-12-10T20:04:30;3.21;98.24
75010;DHT22;63564;46.840;18.336;2022-12-10T20:07:31;3.19;98.53
75010;DHT22;63564;46.840;18.336;2022-12-10T20:10:32;3.15;98.66
75010;DHT22;63564;46.840;18.336;2022-12-10T20:13:33;3.16;98.73
75010;DHT22;63564;46.840;18.336;2022-12-10T20:16:34;3.15;99.06
75010;DHT22;63564;46.840;18.336;2022-12-10T20:19:36;3.15;98.83
75010;DHT22;63564;46.840;18.336;2022-12-10T20:22:40;3.12;99.15
75010;DHT22;63564;46.840;18.336;2022-12-10T20:25:41;3.13;99.05
75010;DHT22;63564;46.840;18.336;2022-12-10T20:28:46;3.13;98.70
75010;DHT22;63564;46.840;18.336;2022-12-10T20:31:47;3.12;99.01
75010;DHT22;63564;46.840;18.336;2022-12-10T20:34:50;3.09;99.08
75010;DHT22;63564;46.840;18.336;2022-12-10T20:37:51;3.11;99.07